»·PEaware :: N525MT KOAK-KRBG

N525MT :: KOAK-KRBG

FLIGHT INFORMATION

Flight Status: Arrived
Operator: Privately registered:
United States
More flights under this callsign
Pilot: David D. (37029)
Aircraft: PIPER PA-31/31P NAVAJO CHIEFTAIN
(PA31)
More flights by this aircraft type
Origin: KOAK Metro Oakland Intl
United States
Destination: KRBG Roseburg Regl
United States
More flights between these airports :: More routes between these airports
Route: NIMI5 OAK COLLI V6 SAC V23 OED V448 RBG
File this flight plan on PilotEdge
Remarks:
Altitude:
(Current/Filed)
10,000ft
Speed:
(Current/Filed)
180kts
Departed: 20-Feb-23 12:51 PM
Arrived: 20-Feb-23 02:52 PM
Distance/Time
Traveled:
335nm/2:01
Distance/Time
To Go:
Arrived

Flight Plot

Page will automatically refresh every two minutes.

Flight plan parsing failed; only flown route is shown


Map Options




Map Legend


Flown Route
Filed Route
Departure Airport
Arrival Airport
Navaid (VOR, NDB)
Fix

Horizontal Profiles

Position Reports

Time Latitude Longitude Heading Altitude Ground
Speed
20-Feb-23 12:15 37.728451 -122.210407 215 8ft 0kts
20-Feb-23 12:16 37.728451 -122.210407 215 8ft 0kts
20-Feb-23 12:17 37.728451 -122.210407 215 8ft 0kts
20-Feb-23 12:17 37.728451 -122.210407 215 8ft 0kts
20-Feb-23 12:19 37.728451 -122.210407 215 8ft 0kts
20-Feb-23 12:20 37.728451 -122.210407 215 8ft 0kts
20-Feb-23 12:21 37.728451 -122.210407 215 8ft 0kts
20-Feb-23 12:21 37.728451 -122.210407 215 8ft 0kts
20-Feb-23 12:22 37.728451 -122.210407 215 8ft 0kts
20-Feb-23 12:23 37.728451 -122.210407 215 8ft 0kts
20-Feb-23 12:25 37.728451 -122.210407 215 8ft 0kts
20-Feb-23 12:25 37.728451 -122.210407 215 8ft 0kts
20-Feb-23 12:26 37.728451 -122.210407 215 8ft 0kts
20-Feb-23 12:27 37.728451 -122.210407 215 8ft 0kts
20-Feb-23 12:28 37.728451 -122.210407 215 8ft 0kts
20-Feb-23 12:29 37.728451 -122.210407 215 8ft 0kts
20-Feb-23 12:30 37.728451 -122.210407 215 8ft 0kts
20-Feb-23 12:31 37.728451 -122.210407 215 8ft 0kts
20-Feb-23 12:32 37.728451 -122.210407 215 8ft 0kts
20-Feb-23 12:33 37.728451 -122.210407 215 8ft 0kts
20-Feb-23 12:34 37.728451 -122.210407 215 8ft 0kts
20-Feb-23 12:35 37.728451 -122.210407 215 8ft 0kts
20-Feb-23 12:36 37.728451 -122.210407 215 8ft 0kts
20-Feb-23 12:37 37.728451 -122.210407 215 8ft 0kts
20-Feb-23 12:38 37.728451 -122.210407 215 8ft 0kts
20-Feb-23 12:39 37.728451 -122.210407 215 8ft 0kts
20-Feb-23 12:40 37.728451 -122.210407 215 8ft 0kts
20-Feb-23 12:41 37.728451 -122.210407 215 8ft 0kts
20-Feb-23 12:42 37.728451 -122.210407 215 8ft 0kts
20-Feb-23 12:43 37.728451 -122.210407 215 8ft 0kts
20-Feb-23 12:44 37.727559 -122.209914 131 8ft 11kts
20-Feb-23 12:45 37.726037 -122.205658 112 9ft 11kts
20-Feb-23 12:46 37.725579 -122.204659 162 9ft 0kts
20-Feb-23 12:47 37.725579 -122.204659 162 9ft 0kts
20-Feb-23 12:48 37.725579 -122.204659 162 9ft 0kts
20-Feb-23 12:49 37.724988 -122.205652 294 9ft 19kts
20-Feb-23 12:50 37.736732 -122.230694 331 917ft 98kts
20-Feb-23 12:51 37.764987 -122.253165 330 1864ft 139kts
20-Feb-23 12:52 37.798861 -122.271689 27 3071ft 136kts
20-Feb-23 12:53 37.809886 -122.227911 83 3941ft 153kts
20-Feb-23 12:54 37.823139 -122.172669 58 4209ft 164kts
20-Feb-23 12:55 37.844901 -122.124715 59 5022ft 149kts
20-Feb-23 12:56 37.865742 -122.080853 42 5841ft 143kts
20-Feb-23 12:57 37.896815 -122.048549 38 6660ft 148kts
20-Feb-23 12:58 37.929093 -122.015548 39 7539ft 150kts
20-Feb-23 12:59 37.961498 -121.982256 39 8422ft 151kts
20-Feb-23 13:00 37.994057 -121.948753 39 9301ft 151kts
20-Feb-23 13:01 38.027430 -121.914389 39 9973ft 163kts
20-Feb-23 13:02 38.065578 -121.875071 39 9984ft 182kts
20-Feb-23 13:03 38.104653 -121.834696 40 9992ft 181kts
20-Feb-23 13:04 38.143617 -121.794297 40 10000ft 180kts
20-Feb-23 13:05 38.184116 -121.757130 32 10005ft 180kts
20-Feb-23 13:06 38.226562 -121.723364 33 10008ft 180kts
20-Feb-23 13:07 38.269276 -121.689606 32 10004ft 181kts
20-Feb-23 13:08 38.312024 -121.655810 32 9985ft 182kts
20-Feb-23 13:09 38.355192 -121.621654 32 9974ft 183kts
20-Feb-23 13:10 38.398522 -121.587325 32 9969ft 183kts
20-Feb-23 13:11 38.442578 -121.555602 11 9967ft 183kts
20-Feb-23 13:12 38.492984 -121.566720 347 9967ft 185kts
20-Feb-23 13:13 38.542638 -121.582920 347 9967ft 184kts
20-Feb-23 13:14 38.592260 -121.598811 347 9967ft 184kts
20-Feb-23 13:15 38.641891 -121.614631 347 9966ft 184kts
20-Feb-23 13:16 38.691288 -121.630389 347 9964ft 183kts
20-Feb-23 13:17 38.740859 -121.646202 347 9962ft 183kts
20-Feb-23 13:18 38.790375 -121.662022 348 9962ft 183kts
20-Feb-23 13:19 38.839924 -121.677877 348 9962ft 184kts
20-Feb-23 13:20 38.889670 -121.693832 347 9962ft 184kts
20-Feb-23 13:21 38.939229 -121.709799 347 9966ft 184kts
20-Feb-23 13:22 38.989049 -121.725866 347 9969ft 185kts
20-Feb-23 13:23 39.039044 -121.741997 346 9972ft 186kts
20-Feb-23 13:24 39.089305 -121.758210 346 9972ft 187kts
20-Feb-23 13:25 39.139659 -121.774484 346 9972ft 187kts
20-Feb-23 13:26 39.190278 -121.790876 346 9972ft 188kts
20-Feb-23 13:27 39.241063 -121.807344 346 9976ft 188kts
20-Feb-23 13:28 39.291710 -121.823790 346 9981ft 188kts
20-Feb-23 13:29 39.341828 -121.842898 338 9987ft 188kts
20-Feb-23 13:30 39.390422 -121.867745 339 10011ft 187kts
20-Feb-23 13:31 39.438955 -121.892719 339 10009ft 188kts
20-Feb-23 13:32 39.487701 -121.917870 339 10006ft 189kts
20-Feb-23 13:33 39.536495 -121.943075 339 10004ft 189kts
20-Feb-23 13:34 39.585629 -121.968493 339 10004ft 190kts
20-Feb-23 13:35 39.634767 -121.993952 339 10004ft 190kts
20-Feb-23 13:36 39.683805 -122.019396 339 10004ft 190kts
20-Feb-23 13:37 39.733012 -122.044962 339 10004ft 191kts
20-Feb-23 13:38 39.782376 -122.070653 339 10004ft 191kts
20-Feb-23 13:39 39.831509 -122.096264 339 10004ft 191kts
20-Feb-23 13:40 39.880964 -122.122082 339 10001ft 191kts
20-Feb-23 13:41 39.930343 -122.147901 339 9995ft 192kts
20-Feb-23 13:42 39.980076 -122.173945 339 9989ft 192kts
20-Feb-23 13:43 40.029612 -122.199927 339 9986ft 193kts
20-Feb-23 13:44 40.079414 -122.226090 339 9986ft 193kts
20-Feb-23 13:45 40.129743 -122.249963 344 9986ft 192kts
20-Feb-23 13:46 40.180981 -122.270427 343 9985ft 193kts
20-Feb-23 13:47 40.232052 -122.291451 343 9980ft 193kts
20-Feb-23 13:48 40.283403 -122.312765 343 9973ft 193kts
20-Feb-23 13:49 40.334611 -122.334061 343 9966ft 194kts
20-Feb-23 13:50 40.386153 -122.355528 343 9962ft 195kts
20-Feb-23 13:51 40.437912 -122.377119 343 9959ft 195kts
20-Feb-23 13:52 40.488423 -122.398232 343 10021ft 192kts
20-Feb-23 13:53 40.539796 -122.419723 343 10003ft 194kts
20-Feb-23 13:54 40.591259 -122.441287 343 10003ft 195kts
20-Feb-23 13:55 40.642882 -122.462953 343 10003ft 195kts
20-Feb-23 13:56 40.694486 -122.484654 343 10003ft 195kts
20-Feb-23 13:57 40.746286 -122.506473 343 10003ft 195kts
20-Feb-23 13:58 40.798032 -122.528312 343 10003ft 195kts
20-Feb-23 13:59 40.849620 -122.550119 343 10003ft 195kts
20-Feb-23 14:00 40.901293 -122.571998 343 10003ft 195kts
20-Feb-23 14:01 40.953035 -122.593942 343 10003ft 195kts
20-Feb-23 14:02 41.004531 -122.615818 343 10037ft 193kts
20-Feb-23 14:03 41.055338 -122.637437 343 10091ft 191kts
20-Feb-23 14:04 41.105580 -122.658848 342 10145ft 188kts
20-Feb-23 14:05 41.154785 -122.679852 342 10167ft 187kts
20-Feb-23 14:06 41.204407 -122.701068 342 10167ft 188kts
20-Feb-23 14:07 41.254213 -122.722396 342 10142ft 190kts
20-Feb-23 14:08 41.305320 -122.744306 342 10019ft 192kts
20-Feb-23 14:09 41.356590 -122.766338 342 9992ft 194kts
20-Feb-23 14:10 41.407698 -122.788333 342 9992ft 194kts
20-Feb-23 14:11 41.459576 -122.807424 355 9993ft 193kts
20-Feb-23 14:12 41.513102 -122.813038 356 9992ft 193kts
20-Feb-23 14:13 41.566784 -122.818347 356 9992ft 193kts
20-Feb-23 14:14 41.620335 -122.823800 356 9992ft 193kts
20-Feb-23 14:15 41.673888 -122.829286 356 9992ft 193kts
20-Feb-23 14:16 41.727664 -122.834804 356 9992ft 193kts
20-Feb-23 14:17 41.781172 -122.840304 356 9992ft 193kts
20-Feb-23 14:18 41.834791 -122.845824 356 9992ft 193kts
20-Feb-23 14:19 41.888629 -122.851371 356 9992ft 193kts
20-Feb-23 14:20 41.942269 -122.856887 355 9995ft 193kts
20-Feb-23 14:21 41.995232 -122.862357 356 9999ft 191kts
20-Feb-23 14:22 42.048114 -122.867837 356 10005ft 190kts
20-Feb-23 14:23 42.100321 -122.873255 356 10009ft 190kts
20-Feb-23 14:24 42.153719 -122.878806 356 10010ft 190kts
20-Feb-23 14:25 42.206143 -122.887527 343 9995ft 192kts
20-Feb-23 14:26 42.258879 -122.912160 341 9364ft 199kts
20-Feb-23 14:27 42.310541 -122.935670 342 8716ft 193kts
20-Feb-23 14:28 42.358870 -122.957188 342 8536ft 170kts
20-Feb-23 14:29 42.402652 -122.977037 342 8537ft 163kts
20-Feb-23 14:30 42.445549 -122.996269 342 8537ft 160kts
20-Feb-23 14:31 42.488479 -123.015434 342 8538ft 160kts
20-Feb-23 14:32 42.531102 -123.034620 342 8538ft 159kts
20-Feb-23 14:33 42.574813 -123.054272 342 8260ft 172kts
20-Feb-23 14:34 42.621292 -123.075397 342 7800ft 176kts
20-Feb-23 14:35 42.667730 -123.096544 342 7357ft 175kts
20-Feb-23 14:36 42.713950 -123.117371 342 7087ft 169kts
20-Feb-23 14:37 42.757953 -123.137175 342 7083ft 162kts
20-Feb-23 14:38 42.802713 -123.157218 342 6715ft 172kts
20-Feb-23 14:39 42.847583 -123.177572 341 6544ft 160kts
20-Feb-23 14:40 42.885435 -123.198309 326 6544ft 139kts
20-Feb-23 14:41 42.918539 -123.229386 326 6545ft 150kts
20-Feb-23 14:43 42.954051 -123.263495 326 6184ft 161kts
20-Feb-23 14:44 42.990791 -123.299114 326 5730ft 162kts
20-Feb-23 14:45 43.027322 -123.334725 326 5286ft 161kts
20-Feb-23 14:46 43.069688 -123.356056 355 4475ft 167kts
20-Feb-23 14:47 43.116049 -123.358113 1 3139ft 164kts
20-Feb-23 14:48 43.153745 -123.357439 1 2209ft 107kts
20-Feb-23 14:49 43.182302 -123.356264 4 1711ft 105kts
20-Feb-23 14:50 43.210266 -123.356084 1 1098ft 100kts
20-Feb-23 14:51 43.235645 -123.355905 358 538ft 69kts
20-Feb-23 14:52 43.241602 -123.356244 277 538ft 9kts
20-Feb-23 14:53 43.241884 -123.357406 282 538ft 0kts
20-Feb-23 14:54 43.241884 -123.357406 282 538ft 0kts
20-Feb-23 14:55 43.241884 -123.357406 282 538ft 0kts
20-Feb-23 14:56 43.241884 -123.357406 282 538ft 0kts

Navigation Log

Ident Type
Flight plan parsing failed, navigation log unavailable